Time;durP1;ratioP1;P1;durP2;ratioP2;P2;SDS_P1;SDS_P2;PMS_P1;PMS_P2;Temp;Humidity;BMP_temperature;BMP_pressure;BME280_temperature;BME280_humidity;BME280_pressure;Samples;Min_cycle;Max_cycle;Signal;HPM_P1;HPM_P2
2022/06/18 00:01:48;;;;;;;2.70;2.10;;;17.00;99.90;;;;;;4974524;28;20474;-72
2022/06/18 00:04:18;;;;;;;2.47;2.10;;;16.90;99.90;;;;;;4974946;28;20474;-72
2022/06/18 00:06:51;;;;;;;2.60;2.40;;;17.00;99.80;;;;;;4974154;28;20857;-71
2022/06/18 00:09:20;;;;;;;2.73;2.53;;;17.00;99.80;;;;;;4974221;28;20834;-72
2022/06/18 00:14:31;;;;;;;2.30;2.10;;;16.90;99.90;;;;;;4974675;28;20523;-72
2022/06/18 00:16:58;;;;;;;2.50;2.30;;;16.90;99.90;;;;;;4973924;28;20495;-71
2022/06/18 00:19:25;;;;;;;2.50;2.30;;;16.80;99.90;;;;;;4973815;28;20463;-73
2022/06/18 00:21:53;;;;;;;2.10;1.90;;;16.80;99.90;;;;;;4973958;28;20869;-73
2022/06/18 00:24:21;;;;;;;2.67;2.17;;;16.70;99.90;;;;;;4974582;28;20470;-73
2022/06/18 00:26:48;;;;;;;2.30;2.10;;;16.70;99.90;;;;;;4974129;28;20506;-73
2022/06/18 00:29:18;;;;;;;2.93;2.40;;;16.70;99.90;;;;;;4973421;28;20471;-73
2022/06/18 00:31:45;;;;;;;2.63;2.43;;;16.70;99.90;;;;;;4972928;28;20498;-73
2022/06/18 00:34:12;;;;;;;3.53;2.60;;;16.60;99.90;;;;;;4974060;28;20459;-73
2022/06/18 00:36:41;;;;;;;2.73;2.50;;;16.60;99.90;;;;;;4973900;28;20491;-73
2022/06/18 00:39:13;;;;;;;2.53;2.30;;;16.60;99.90;;;;;;4973573;28;20875;-73
2022/06/18 00:41:42;;;;;;;2.77;2.50;;;16.60;99.90;;;;;;4973833;28;20477;-73
2022/06/18 00:44:18;;;;;;;3.20;2.10;;;16.60;99.90;;;;;;4974115;28;20682;-73
2022/06/18 00:46:50;;;;;;;2.73;2.50;;;16.50;99.90;;;;;;4973376;28;20494;-73
2022/06/18 00:49:33;;;;;;;6.60;2.43;;;16.50;99.90;;;;;;4973410;28;20463;-73
2022/06/18 00:52:05;;;;;;;2.87;2.53;;;16.50;99.90;;;;;;4973362;28;20467;-72
2022/06/18 00:54:40;;;;;;;2.70;2.50;;;16.40;99.90;;;;;;4973851;28;20474;-73
2022/06/18 00:57:12;;;;;;;3.37;2.57;;;16.40;99.90;;;;;;4973340;28;20516;-73
2022/06/18 00:59:44;;;;;;;2.93;2.67;;;16.40;99.90;;;;;;4972978;28;20466;-72
2022/06/18 01:02:14;;;;;;;2.80;2.57;;;16.40;99.90;;;;;;4973123;28;20955;-73
2022/06/18 01:04:41;;;;;;;3.17;2.47;;;16.40;99.90;;;;;;4973585;28;20467;-73
2022/06/18 01:07:19;;;;;;;2.97;2.60;;;16.30;99.90;;;;;;4973164;28;21142;-73
2022/06/18 01:09:49;;;;;;;2.73;2.50;;;16.30;99.90;;;;;;4973286;28;20462;-73
2022/06/18 01:12:16;;;;;;;3.03;2.77;;;16.20;99.90;;;;;;4973531;28;20471;-73
2022/06/18 01:14:43;;;;;;;3.10;2.67;;;16.20;99.90;;;;;;4972749;28;20470;-73
2022/06/18 01:17:11;;;;;;;3.23;2.57;;;16.20;99.90;;;;;;4973196;28;21005;-73
2022/06/18 01:19:40;;;;;;;2.80;2.60;;;16.20;99.90;;;;;;4972174;28;20470;-73
2022/06/18 01:22:22;;;;;;;2.67;2.47;;;16.20;99.90;;;;;;4973421;28;20462;-71
2022/06/18 01:24:50;;;;;;;2.60;2.40;;;16.20;99.90;;;;;;4972651;28;20479;-73
2022/06/18 01:27:18;;;;;;;4.07;2.70;;;16.10;99.90;;;;;;4972982;28;20483;-73
2022/06/18 01:29:44;;;;;;;3.27;2.90;;;16.10;99.90;;;;;;4972333;28;20813;-73
2022/06/18 01:32:15;;;;;;;2.80;2.60;;;16.10;99.90;;;;;;4972623;28;20470;-73
2022/06/18 01:34:41;;;;;;;3.63;2.83;;;16.00;99.90;;;;;;4972947;28;20513;-73
2022/06/18 01:37:09;;;;;;;2.83;2.63;;;16.00;99.90;;;;;;4972528;28;20577;-72
2022/06/18 01:39:38;;;;;;;3.00;2.40;;;16.00;99.90;;;;;;4972237;28;20463;-73
2022/06/18 01:42:12;;;;;;;3.87;2.70;;;16.00;99.90;;;;;;4972212;28;20462;-73
2022/06/18 01:44:43;;;;;;;2.70;2.50;;;16.00;99.90;;;;;;4972714;28;20459;-72
2022/06/18 01:47:19;;;;;;;2.83;2.60;;;15.90;99.90;;;;;;4972421;28;20486;-72
2022/06/18 01:49:49;;;;;;;2.77;2.57;;;15.90;99.90;;;;;;4971981;28;20883;-72
2022/06/18 01:52:19;;;;;;;2.97;2.70;;;15.90;99.90;;;;;;4973127;28;20463;-72
2022/06/18 01:54:49;;;;;;;2.77;2.53;;;15.90;99.90;;;;;;4972155;28;20475;-72
2022/06/18 01:57:22;;;;;;;5.10;2.80;;;15.90;99.90;;;;;;4972425;28;20494;-72
2022/06/18 01:59:53;;;;;;;3.00;2.70;;;15.90;99.90;;;;;;4971537;28;20471;-73
2022/06/18 02:02:20;;;;;;;3.83;3.07;;;15.90;99.90;;;;;;4972596;28;20458;-73
2022/06/18 02:04:46;;;;;;;3.47;2.53;;;15.90;99.90;;;;;;4972026;28;20474;-73
2022/06/18 02:07:15;;;;;;;4.30;3.20;;;15.80;99.90;;;;;;4972366;28;20483;-73
2022/06/18 02:09:46;;;;;;;3.27;2.97;;;15.80;99.90;;;;;;4971747;28;20459;-73
2022/06/18 02:12:18;;;;;;;3.10;2.83;;;15.70;99.90;;;;;;4972174;28;20462;-73
2022/06/18 02:14:49;;;;;;;2.93;2.30;;;15.70;99.90;;;;;;4972276;28;20463;-71
2022/06/18 02:17:18;;;;;;;3.10;2.80;;;15.70;99.90;;;;;;4971951;28;20492;-73
2022/06/18 02:19:49;;;;;;;2.97;2.77;;;15.70;99.90;;;;;;4971584;28;20554;-71
2022/06/18 02:22:16;;;;;;;3.30;3.00;;;15.70;99.90;;;;;;4972074;28;20835;-73
2022/06/18 02:24:43;;;;;;;7.63;3.03;;;15.60;99.90;;;;;;4972387;28;20501;-73
2022/06/18 02:27:13;;;;;;;3.13;2.93;;;15.60;99.90;;;;;;4972131;28;20491;-73
2022/06/18 02:29:43;;;;;;;3.30;3.00;;;15.60;99.90;;;;;;4971517;28;20549;-73
2022/06/18 02:32:18;;;;;;;2.97;2.77;;;15.50;99.90;;;;;;4972799;28;20467;-73
2022/06/18 02:34:45;;;;;;;5.00;2.97;;;15.60;99.90;;;;;;4971707;28;20466;-72
2022/06/18 02:37:21;;;;;;;3.20;2.90;;;15.50;99.90;;;;;;4971911;28;21013;-73
2022/06/18 02:39:58;;;;;;;4.80;2.90;;;15.50;99.90;;;;;;4971010;28;20513;-72
2022/06/18 02:42:28;;;;;;;3.00;2.70;;;15.50;99.90;;;;;;4972128;28;20460;-73
2022/06/18 02:44:57;;;;;;;3.00;2.77;;;15.40;99.90;;;;;;4971621;28;20985;-72
2022/06/18 02:47:24;;;;;;;3.10;2.80;;;15.40;99.90;;;;;;4971886;28;20482;-72
2022/06/18 02:49:55;;;;;;;3.20;2.90;;;15.40;99.90;;;;;;4971035;28;20463;-73
2022/06/18 02:52:26;;;;;;;3.90;3.13;;;15.30;99.90;;;;;;4971990;28;20487;-72
2022/06/18 02:55:00;;;;;;;5.70;3.07;;;15.30;99.90;;;;;;4972916;28;20482;-71
2022/06/18 02:57:29;;;;;;;3.40;3.13;;;15.30;99.90;;;;;;4975599;28;20489;-72
2022/06/18 02:59:57;;;;;;;3.50;2.90;;;15.30;99.90;;;;;;4975089;28;20463;-72
2022/06/18 03:02:24;;;;;;;3.67;2.97;;;15.20;99.90;;;;;;4975659;28;20981;-73
2022/06/18 03:04:51;;;;;;;3.40;3.10;;;15.20;99.90;;;;;;4975729;28;20475;-73
2022/06/18 03:07:18;;;;;;;4.03;2.83;;;15.20;99.90;;;;;;4975313;28;20506;-73
2022/06/18 03:12:28;;;;;;;3.00;2.80;;;15.30;99.90;;;;;;4975858;28;20970;-73
2022/06/18 03:14:56;;;;;;;4.20;3.13;;;15.30;99.90;;;;;;4975220;28;20507;-74
2022/06/18 03:17:23;;;;;;;2.93;2.73;;;15.20;99.90;;;;;;4975723;28;20486;-75
2022/06/18 03:19:56;;;;;;;3.33;2.73;;;15.20;99.90;;;;;;4974477;28;20463;-74
2022/06/18 03:22:23;;;;;;;3.60;3.10;;;15.20;99.90;;;;;;4975743;28;20467;-74
2022/06/18 03:24:50;;;;;;;3.17;2.80;;;15.20;99.90;;;;;;4975050;28;20463;-74
2022/06/18 03:27:17;;;;;;;3.17;2.87;;;15.10;99.90;;;;;;4975593;28;20894;-74
2022/06/18 03:29:46;;;;;;;3.30;3.00;;;15.10;99.90;;;;;;4974391;28;20467;-74
2022/06/18 03:32:14;;;;;;;3.70;3.40;;;15.20;99.90;;;;;;4975220;28;20466;-74
2022/06/18 03:34:41;;;;;;;3.20;2.90;;;15.10;99.90;;;;;;4975395;28;20474;-74
2022/06/18 03:37:07;;;;;;;3.33;3.03;;;15.10;99.90;;;;;;4975081;28;20489;-74
2022/06/18 03:39:34;;;;;;;3.20;2.90;;;15.10;99.90;;;;;;4974368;28;21056;-74
2022/06/18 03:42:01;;;;;;;3.60;3.17;;;15.10;99.90;;;;;;4974835;28;20837;-74
2022/06/18 03:44:27;;;;;;;4.00;3.20;;;15.10;99.90;;;;;;4975215;28;20467;-74
2022/06/18 03:46:55;;;;;;;3.33;3.13;;;15.10;99.90;;;;;;4974774;28;20509;-74
2022/06/18 03:49:26;;;;;;;3.53;3.23;;;15.10;99.90;;;;;;4974134;28;20815;-74
2022/06/18 03:51:53;;;;;;;3.20;2.93;;;15.10;99.90;;;;;;4974897;28;20466;-74
2022/06/18 03:54:20;;;;;;;4.10;3.73;;;15.10;99.90;;;;;;4974590;28;20855;-74
2022/06/18 03:56:47;;;;;;;4.23;3.70;;;15.20;99.90;;;;;;4974549;28;20487;-74
2022/06/18 03:59:14;;;;;;;3.30;3.10;;;15.20;99.90;;;;;;4973839;28;20486;-74
2022/06/18 04:01:41;;;;;;;4.07;3.67;;;15.20;99.90;;;;;;4974679;28;20466;-74
2022/06/18 04:04:08;;;;;;;3.53;3.23;;;15.30;99.90;;;;;;4974767;28;20494;-74
2022/06/18 04:06:38;;;;;;;3.10;2.80;;;15.30;99.90;;;;;;4974141;28;20478;-74
2022/06/18 04:09:05;;;;;;;3.40;3.20;;;15.30;99.90;;;;;;4974392;28;20891;-73
2022/06/18 04:11:32;;;;;;;3.67;3.37;;;15.40;99.90;;;;;;4974125;28;20459;-74
2022/06/18 04:13:59;;;;;;;3.33;3.03;;;15.50;99.90;;;;;;4974461;28;20471;-74
2022/06/18 04:16:26;;;;;;;5.83;2.90;;;15.50;99.90;;;;;;4974334;28;20489;-73
2022/06/18 04:18:53;;;;;;;3.80;2.97;;;15.60;99.90;;;;;;4974083;28;20848;-74
2022/06/18 04:21:20;;;;;;;3.33;3.03;;;15.60;99.90;;;;;;4974008;28;20467;-74
2022/06/18 04:23:48;;;;;;;3.53;3.30;;;15.70;99.90;;;;;;4973807;28;21241;-73
2022/06/18 04:26:15;;;;;;;3.37;3.07;;;15.80;99.90;;;;;;4959566;28;20463;-74
2022/06/18 04:28:42;;;;;;;4.70;3.40;;;15.90;99.90;;;;;;4954725;28;20833;-73
2022/06/18 04:31:08;;;;;;;3.80;3.00;;;16.00;99.90;;;;;;4954594;28;20464;-73
2022/06/18 04:33:35;;;;;;;4.27;3.00;;;16.10;99.90;;;;;;4954742;28;20475;-74
2022/06/18 04:36:02;;;;;;;3.73;3.43;;;16.20;99.90;;;;;;4954828;28;20549;-73
2022/06/18 04:38:29;;;;;;;3.17;2.90;;;16.30;99.90;;;;;;4954715;28;20484;-73
2022/06/18 04:40:57;;;;;;;3.50;3.20;;;16.30;99.90;;;;;;4954054;28;20546;-74
2022/06/18 04:43:23;;;;;;;5.73;3.90;;;16.40;99.90;;;;;;4954864;28;20472;-74
2022/06/18 04:45:50;;;;;;;7.50;5.70;;;16.50;99.90;;;;;;4954429;28;20460;-73
2022/06/18 04:48:17;;;;;;;3.80;3.50;;;16.60;99.90;;;;;;4954529;28;20480;-73
2022/06/18 04:50:43;;;;;;;3.83;3.20;;;16.60;99.90;;;;;;4954159;28;20464;-73
2022/06/18 04:53:11;;;;;;;4.17;3.67;;;16.70;99.90;;;;;;4954361;28;20472;-73
2022/06/18 04:55:39;;;;;;;3.20;3.00;;;16.80;99.90;;;;;;4998959;23;20533;-92
2022/06/18 04:58:07;;;;;;;3.63;3.33;;;16.90;99.90;;;;;;4986235;28;20455;-93
2022/06/18 05:00:38;;;;;;;3.80;3.50;;;16.90;99.90;;;;;;4977505;28;20980;-93
2022/06/18 05:03:05;;;;;;;3.97;3.57;;;17.00;99.90;;;;;;4980106;28;20892;-92
2022/06/18 05:05:32;;;;;;;4.20;3.80;;;17.10;99.90;;;;;;4979714;28;20545;-92
2022/06/18 05:08:01;;;;;;;3.57;3.33;;;17.20;99.90;;;;;;4978105;28;20459;-91
2022/06/18 05:10:28;;;;;;;4.53;3.40;;;17.20;99.90;;;;;;4975939;28;20494;-91
2022/06/18 05:13:06;;;;;;;4.13;3.80;;;17.40;99.90;;;;;;4979522;28;20956;-92
2022/06/18 05:15:35;;;;;;;3.67;3.33;;;17.50;99.90;;;;;;4975866;28;20503;-91
2022/06/18 05:18:03;;;;;;;4.00;3.40;;;17.50;99.90;;;;;;4974540;28;20451;-90
2022/06/18 05:20:29;;;;;;;4.30;3.40;;;17.70;99.90;;;;;;4973938;28;20827;-91
2022/06/18 05:23:02;;;;;;;3.30;2.93;;;17.80;99.90;;;;;;4975695;28;20554;-91
2022/06/18 05:25:29;;;;;;;3.77;3.47;;;17.90;99.90;;;;;;4977957;28;20498;-91
2022/06/18 05:27:56;;;;;;;5.00;3.83;;;18.00;99.90;;;;;;4994579;28;20454;-91
2022/06/18 05:30:25;;;;;;;3.53;3.23;;;18.10;99.90;;;;;;4994252;28;20470;-91
2022/06/18 05:32:53;;;;;;;3.40;3.20;;;18.20;99.90;;;;;;4994298;28;20462;-90
2022/06/18 05:35:21;;;;;;;3.67;3.37;;;18.40;99.90;;;;;;4995190;28;20518;-90
2022/06/18 05:37:50;;;;;;;6.70;3.73;;;18.50;99.90;;;;;;4996215;28;20458;-91
2022/06/18 05:40:17;;;;;;;4.20;3.57;;;18.60;99.90;;;;;;4993386;28;20576;-90
2022/06/18 05:42:44;;;;;;;4.23;3.80;;;18.70;99.90;;;;;;4993516;28;20951;-91
2022/06/18 05:45:12;;;;;;;3.43;3.10;;;18.80;99.90;;;;;;4990810;28;20508;-90
2022/06/18 05:47:38;;;;;;;4.00;3.70;;;19.00;99.90;;;;;;4993297;28;20982;-91
2022/06/18 05:50:12;;;;;;;3.70;3.40;;;19.10;99.90;;;;;;4992801;28;20455;-91
2022/06/18 05:52:39;;;;;;;4.10;3.53;;;19.20;99.90;;;;;;4989218;28;20473;-91
2022/06/18 05:55:05;;;;;;;2.93;2.73;;;19.30;99.90;;;;;;4993266;28;20505;-91
2022/06/18 05:57:32;;;;;;;3.93;3.60;;;19.50;99.90;;;;;;4994035;28;20560;-91
2022/06/18 06:00:04;;;;;;;6.53;3.60;;;19.60;99.90;;;;;;4994415;28;21062;-91
2022/06/18 06:02:31;;;;;;;3.87;3.33;;;19.80;99.90;;;;;;4988740;28;20458;-91
2022/06/18 06:04:58;;;;;;;4.20;3.57;;;20.00;99.90;;;;;;4994346;28;20491;-91
2022/06/18 06:07:26;;;;;;;3.60;3.30;;;20.10;99.90;;;;;;4993436;28;21001;-91
2022/06/18 06:12:38;;;;;;;4.10;3.40;;;20.40;99.90;;;;;;4994663;28;20541;-92
2022/06/18 06:15:06;;;;;;;4.00;3.40;;;20.70;99.90;;;;;;4993093;28;20481;-92
2022/06/18 06:17:33;;;;;;;3.70;3.40;;;20.80;99.90;;;;;;4993229;28;20458;-92
2022/06/18 06:20:01;;;;;;;3.90;3.60;;;20.90;99.90;;;;;;4993552;28;20508;-91
2022/06/18 06:22:30;;;;;;;3.50;3.10;;;21.00;99.90;;;;;;4995306;28;20542;-91
2022/06/18 06:24:57;;;;;;;4.00;3.30;;;21.20;99.90;;;;;;4994535;28;20512;-93
2022/06/18 06:27:29;;;;;;;3.97;3.57;;;21.30;99.90;;;;;;4994524;28;20461;-91
2022/06/18 06:29:56;;;;;;;4.20;3.80;;;21.50;99.90;;;;;;4993847;28;21087;-92
2022/06/18 06:32:22;;;;;;;4.70;3.47;;;21.50;99.90;;;;;;4993459;28;20462;-92
2022/06/18 06:34:49;;;;;;;3.40;3.10;;;21.70;99.90;;;;;;4993595;28;20984;-94
2022/06/18 06:37:17;;;;;;;3.57;3.27;;;21.80;99.90;;;;;;4992889;28;20461;-92
2022/06/18 06:39:45;;;;;;;3.83;3.53;;;21.90;99.90;;;;;;4994389;28;20482;-92
2022/06/18 06:42:12;;;;;;;3.00;2.80;;;22.00;99.90;;;;;;4994341;28;20466;-92
2022/06/18 06:44:39;;;;;;;3.73;3.43;;;22.20;99.90;;;;;;4994218;28;20486;-92
2022/06/18 06:47:06;;;;;;;4.63;3.47;;;22.30;99.90;;;;;;4993224;28;20503;-92
2022/06/18 06:49:32;;;;;;;3.67;3.37;;;22.40;99.90;;;;;;4992356;28;20466;-93
2022/06/18 06:51:59;;;;;;;5.30;3.67;;;22.40;99.60;;;;;;4993200;28;20470;-92
2022/06/18 06:57:21;;;;;;;3.63;3.17;;;22.60;99.50;;;;;;4992598;28;20580;-92
2022/06/18 06:57:44;;;;;;;3.33;3.07;;;22.70;98.80;;;;;;4992699;28;20474;-92
2022/06/18 07:00:12;;;;;;;4.20;3.60;;;22.80;99.10;;;;;;4992792;28;20854;-92
2022/06/18 07:02:39;;;;;;;3.20;3.00;;;22.90;99.80;;;;;;4993512;28;20464;-91
2022/06/18 07:05:07;;;;;;;3.37;3.17;;;23.10;99.10;;;;;;4998032;28;20484;-92
2022/06/18 07:07:34;;;;;;;3.40;3.10;;;23.20;99.90;;;;;;4997129;28;20911;-92
2022/06/18 07:10:01;;;;;;;3.93;3.53;;;23.30;99.70;;;;;;4995985;28;20456;-92
2022/06/18 07:12:27;;;;;;;3.70;3.40;;;23.40;99.90;;;;;;4983087;28;20462;-92
2022/06/18 07:14:56;;;;;;;3.90;3.40;;;23.50;99.70;;;;;;4978356;28;20533;-93
2022/06/18 07:17:23;;;;;;;3.40;3.10;;;23.60;99.70;;;;;;4977775;28;20999;-93
2022/06/18 07:19:50;;;;;;;3.70;3.40;;;23.80;99.90;;;;;;4982331;28;20483;-91
2022/06/18 07:22:17;;;;;;;3.50;3.20;;;23.90;99.80;;;;;;4991156;28;20827;-92
2022/06/18 07:24:44;;;;;;;3.10;2.80;;;24.00;98.70;;;;;;4978062;28;20483;-91
2022/06/18 07:27:11;;;;;;;3.47;3.13;;;24.10;99.20;;;;;;4986500;28;20473;-91
2022/06/18 07:29:38;;;;;;;3.47;3.27;;;24.20;97.80;;;;;;4985507;28;20470;-91
2022/06/18 07:32:12;;;;;;;8.07;3.80;;;24.20;97.40;;;;;;4978696;28;20520;-89
2022/06/18 07:34:39;;;;;;;3.10;2.80;;;24.40;97.20;;;;;;4974924;28;20958;-92
2022/06/18 07:37:06;;;;;;;3.10;2.90;;;24.50;96.40;;;;;;4980312;28;21002;-92
2022/06/18 07:39:33;;;;;;;3.57;3.23;;;24.60;95.60;;;;;;4981956;28;20495;-91
2022/06/18 07:42:01;;;;;;;3.43;3.00;;;24.70;95.70;;;;;;4982124;28;20825;-92
2022/06/18 07:44:34;;;;;;;2.77;2.57;;;24.80;95.60;;;;;;4983549;28;20478;-91
2022/06/18 07:47:10;;;;;;;2.93;2.70;;;24.90;93.20;;;;;;4981070;28;20459;-93
2022/06/18 07:49:38;;;;;;;2.60;2.40;;;25.00;94.10;;;;;;4987077;28;20470;-91
2022/06/18 07:52:05;;;;;;;3.23;3.03;;;25.10;93.80;;;;;;4987813;28;20462;-91
2022/06/18 07:54:34;;;;;;;2.90;2.70;;;25.20;93.80;;;;;;4982796;28;20486;-92
2022/06/18 07:57:08;;;;;;;2.60;2.40;;;25.20;92.40;;;;;;4989048;28;20467;-94
2022/06/18 08:00:04;;;;;;;;;;;;;;;;;;;;;
2022/06/18 08:03:01;;;;;;;2.80;2.60;;;25.30;92.90;;;;;;4994158;28;20477;-94
2022/06/18 08:05:46;;;;;;;3.70;2.47;;;25.40;93.80;;;;;;4994426;28;20956;-92
2022/06/18 08:08:13;;;;;;;2.80;2.60;;;25.50;91.40;;;;;;4989810;28;20560;-93
2022/06/18 08:10:42;;;;;;;2.83;2.63;;;25.60;92.90;;;;;;4989611;28;20459;-91
2022/06/18 08:13:10;;;;;;;2.70;2.50;;;25.80;93.00;;;;;;4985694;28;20460;-93
2022/06/18 08:15:37;;;;;;;3.37;3.07;;;25.80;91.40;;;;;;4986756;28;20482;-93
2022/06/18 08:18:04;;;;;;;2.70;2.50;;;26.00;91.80;;;;;;4987370;28;20517;-94
2022/06/18 08:20:56;;;;;;;3.13;2.80;;;26.00;92.00;;;;;;5005005;28;20502;-95
2022/06/18 08:42:34;;;;;;;3.03;2.73;;;26.80;90.70;;;;;;4951846;29;20521;-94
2022/06/18 08:48:57;;;;;;;3.67;2.70;;;27.10;92.80;;;;;;5015416;28;20498;-94
2022/06/18 08:55:02;;;;;;;2.27;2.07;;;27.40;92.10;;;;;;4998021;28;20469;-94
2022/06/18 08:58:00;;;;;;;2.30;2.07;;;27.50;90.50;;;;;;5003136;28;20494;-94
2022/06/18 09:00:57;;;;;;;2.13;2.03;;;27.60;90.10;;;;;;4997108;28;20503;-94
2022/06/18 09:06:55;;;;;;;2.30;2.10;;;27.90;90.30;;;;;;5006663;28;20470;-94
2022/06/18 09:09:48;;;;;;;2.90;2.70;;;28.00;91.70;;;;;;5004549;28;20463;-94
2022/06/18 09:12:21;;;;;;;3.10;2.40;;;28.20;91.20;;;;;;5016872;28;20468;-94
2022/06/18 09:14:56;;;;;;;2.97;2.30;;;28.30;86.80;;;;;;5007901;28;20548;-95
2022/06/18 09:17:30;;;;;;;2.23;2.07;;;28.20;89.40;;;;;;5000943;28;20457;-95
2022/06/18 09:20:01;;;;;;;2.60;2.27;;;28.40;91.80;;;;;;5006407;28;20498;-95
2022/06/18 09:22:31;;;;;;;2.53;1.93;;;28.50;87.70;;;;;;4998475;28;20444;-95
2022/06/18 09:25:11;;;;;;;4.23;1.87;;;28.60;82.80;;;;;;5001329;28;20461;-95
2022/06/18 09:31:14;;;;;;;2.50;2.30;;;28.70;82.50;;;;;;5015136;28;20457;-95
2022/06/18 09:34:00;;;;;;;5.03;2.23;;;28.90;84.10;;;;;;5016248;28;20468;-94
2022/06/18 09:43:27;;;;;;;2.30;2.10;;;29.50;85.20;;;;;;4996041;28;20449;-93
2022/06/18 09:46:00;;;;;;;2.37;2.17;;;29.70;85.90;;;;;;5000342;28;20513;-95
2022/06/18 09:48:31;;;;;;;2.57;2.10;;;29.90;85.30;;;;;;5006630;28;20493;-94
2022/06/18 09:57:01;;;;;;;2.97;2.50;;;30.10;90.20;;;;;;4968850;28;20495;-71
2022/06/18 09:59:33;;;;;;;2.17;1.90;;;30.40;90.00;;;;;;4970038;28;20465;-72
2022/06/18 10:02:01;;;;;;;3.00;2.10;;;30.60;86.80;;;;;;4970033;28;20465;-71
2022/06/18 10:07:20;;;;;;;2.97;2.23;;;30.90;78.40;;;;;;4969929;28;20460;-71
2022/06/18 10:09:50;;;;;;;3.80;2.10;;;31.00;81.60;;;;;;4969257;28;20457;-72
2022/06/18 10:12:21;;;;;;;2.10;2.00;;;31.10;86.50;;;;;;4969891;28;20467;-72
2022/06/18 10:14:52;;;;;;;1.87;1.77;;;31.20;86.10;;;;;;4969323;28;20467;-70
2022/06/18 10:17:50;;;;;;;1.80;1.57;;;31.20;71.70;;;;;;4970185;28;20487;-72
2022/06/18 10:20:26;;;;;;;2.93;1.60;;;31.00;81.90;;;;;;4969016;28;20490;-71
2022/06/18 10:23:01;;;;;;;1.90;1.70;;;30.90;71.30;;;;;;4969613;28;20487;-71
2022/06/18 10:25:36;;;;;;;2.40;2.20;;;30.90;76.00;;;;;;4969207;28;20484;-72
2022/06/18 10:28:11;;;;;;;4.03;2.33;;;31.10;79.20;;;;;;4969380;28;20527;-72
2022/06/18 10:30:49;;;;;;;3.10;2.00;;;31.30;83.80;;;;;;4968745;28;20977;-72
2022/06/18 10:33:26;;;;;;;2.40;2.20;;;31.40;80.00;;;;;;4969158;28;20481;-72
2022/06/18 10:36:02;;;;;;;2.63;1.90;;;31.50;79.70;;;;;;4969723;28;20473;-72
2022/06/18 10:38:49;;;;;;;5.00;2.07;;;31.50;81.70;;;;;;4968715;28;20481;-72
2022/06/18 10:41:20;;;;;;;2.23;2.03;;;31.60;80.80;;;;;;4969193;28;20492;-72
2022/06/18 10:44:04;;;;;;;3.23;2.20;;;31.90;77.00;;;;;;4969032;28;20468;-70
2022/06/18 10:46:31;;;;;;;3.40;1.97;;;31.80;71.10;;;;;;4968095;28;20894;-73
2022/06/18 10:49:01;;;;;;;1.97;1.87;;;31.70;81.80;;;;;;4969815;28;20846;-73
2022/06/18 10:51:30;;;;;;;5.37;2.37;;;31.80;84.40;;;;;;4968526;28;20465;-72
2022/06/18 10:54:00;;;;;;;2.13;1.63;;;31.80;73.00;;;;;;4969388;28;20466;-70
2022/06/18 10:56:29;;;;;;;2.33;1.50;;;31.60;71.30;;;;;;4991586;23;20497;-72
2022/06/18 10:58:59;;;;;;;2.93;1.70;;;31.50;73.10;;;;;;4988847;28;20464;-72
2022/06/18 11:01:30;;;;;;;2.70;2.50;;;31.70;76.50;;;;;;4987610;28;20508;-72
2022/06/18 11:04:00;;;;;;;2.30;2.00;;;31.80;71.20;;;;;;4989504;28;20472;-71
2022/06/18 11:06:27;;;;;;;3.37;2.30;;;31.80;71.60;;;;;;4988942;28;20508;-72
2022/06/18 11:08:57;;;;;;;2.67;2.20;;;32.00;75.00;;;;;;4988825;28;20939;-73
2022/06/18 11:11:27;;;;;;;3.40;2.20;;;32.20;81.90;;;;;;4987615;28;20460;-71
2022/06/18 11:13:54;;;;;;;4.33;2.30;;;32.40;80.50;;;;;;4988383;28;20470;-71
2022/06/18 11:16:23;;;;;;;3.30;2.20;;;32.20;69.20;;;;;;4990683;28;20489;-72
2022/06/18 11:18:53;;;;;;;3.97;2.80;;;32.20;74.90;;;;;;4992370;28;20859;-72
2022/06/18 11:21:30;;;;;;;3.87;2.10;;;32.40;75.40;;;;;;4991431;28;20493;-71
2022/06/18 11:24:00;;;;;;;4.63;2.50;;;32.50;74.30;;;;;;4992869;28;20468;-72
2022/06/18 11:26:29;;;;;;;3.07;1.87;;;32.50;71.30;;;;;;4992059;28;20481;-71
2022/06/18 11:29:01;;;;;;;4.57;2.27;;;32.50;71.80;;;;;;4992532;28;20473;-71
2022/06/18 11:31:31;;;;;;;3.53;2.50;;;32.50;72.80;;;;;;4990743;28;20462;-72
2022/06/18 11:34:02;;;;;;;3.80;2.20;;;32.60;75.70;;;;;;4992459;28;21134;-72
2022/06/18 11:36:53;;;;;;;4.70;2.50;;;32.90;76.50;;;;;;4992017;28;20855;-72
2022/06/18 11:39:31;;;;;;;4.57;2.50;;;32.80;67.80;;;;;;4987575;28;20848;-71
2022/06/18 11:42:07;;;;;;;6.30;2.23;;;32.40;68.80;;;;;;4990282;28;20487;-72
2022/06/18 11:44:39;;;;;;;3.50;2.43;;;32.40;72.00;;;;;;4990361;28;20476;-73
2022/06/18 11:47:12;;;;;;;3.27;2.40;;;32.60;74.50;;;;;;4991106;28;20512;-71
2022/06/18 11:49:45;;;;;;;6.90;2.70;;;32.70;78.50;;;;;;4990139;28;20528;-72
2022/06/18 11:52:18;;;;;;;2.90;2.30;;;33.00;75.30;;;;;;4990165;28;20465;-71
2022/06/18 11:54:57;;;;;;;5.97;2.37;;;33.20;78.90;;;;;;4990736;28;20475;-72
2022/06/18 11:57:31;;;;;;;4.27;2.80;;;33.40;71.80;;;;;;4989980;28;20496;-71
2022/06/18 12:00:05;;;;;;;5.83;2.70;;;33.50;77.40;;;;;;4990380;28;20469;-72
2022/06/18 12:02:43;;;;;;;7.00;3.10;;;33.50;72.10;;;;;;4989727;28;20458;-71
2022/06/18 12:05:16;;;;;;;11.70;3.10;;;33.60;71.70;;;;;;4990538;28;20472;-71
2022/06/18 12:07:48;;;;;;;6.90;2.93;;;33.60;73.90;;;;;;4990223;28;20511;-70
2022/06/18 12:10:18;;;;;;;6.87;3.17;;;33.70;71.90;;;;;;4989448;28;20465;-70
2022/06/18 12:13:01;;;;;;;5.70;2.70;;;33.70;72.00;;;;;;4989816;28;20466;-72
2022/06/18 12:15:37;;;;;;;6.87;3.60;;;33.90;73.30;;;;;;4990697;28;20465;-71
2022/06/18 12:18:14;;;;;;;9.67;3.63;;;33.90;71.80;;;;;;4990261;28;20516;-72
2022/06/18 12:20:54;;;;;;;5.80;3.40;;;33.60;71.80;;;;;;4989693;28;21302;-71
2022/06/18 12:23:38;;;;;;;9.37;3.53;;;33.60;80.40;;;;;;4989004;28;20458;-71
2022/06/18 12:26:11;;;;;;;7.87;3.77;;;33.80;71.70;;;;;;4990544;28;20466;-71
2022/06/18 12:28:50;;;;;;;7.67;3.47;;;33.90;70.50;;;;;;4988804;28;21306;-71
2022/06/18 12:31:23;;;;;;;8.43;3.13;;;33.70;70.60;;;;;;4988122;28;20551;-71
2022/06/18 12:33:57;;;;;;;6.53;3.40;;;33.80;77.70;;;;;;4990135;28;20468;-71
2022/06/18 12:36:33;;;;;;;9.80;3.47;;;33.70;70.40;;;;;;4989510;28;20555;-71
2022/06/18 12:39:07;;;;;;;14.43;5.00;;;33.50;69.50;;;;;;4990137;28;20468;-72
2022/06/18 12:41:39;;;;;;;7.77;3.60;;;33.50;75.00;;;;;;4988966;28;20584;-72
2022/06/18 12:44:17;;;;;;;7.40;4.17;;;33.70;74.10;;;;;;4989174;28;20486;-71
2022/06/18 12:46:50;;;;;;;8.30;3.60;;;33.80;72.90;;;;;;4990217;28;20485;-71
2022/06/18 12:49:25;;;;;;;8.77;3.87;;;33.90;71.70;;;;;;4989010;28;20465;-71
2022/06/18 12:51:57;;;;;;;10.40;3.90;;;34.10;78.60;;;;;;4988999;28;20462;-72
2022/06/18 12:54:33;;;;;;;5.97;3.77;;;34.30;70.20;;;;;;4989756;28;20475;-71
2022/06/18 12:57:09;;;;;;;7.20;3.73;;;34.20;73.30;;;;;;4989458;28;20494;-72
2022/06/18 12:59:45;;;;;;;5.73;3.40;;;34.20;73.10;;;;;;4989351;28;20477;-72
2022/06/18 13:02:17;;;;;;;6.60;3.23;;;34.30;74.70;;;;;;4987076;28;20490;-71
2022/06/18 13:05:12;;;;;;;9.30;3.20;;;34.40;77.80;;;;;;4990441;28;20462;-72
2022/06/18 13:07:48;;;;;;;3.60;3.10;;;34.50;70.30;;;;;;4971310;28;20482;-71
2022/06/18 13:10:23;;;;;;;8.60;2.97;;;34.50;71.30;;;;;;4988546;28;20460;-71
2022/06/18 13:13:15;;;;;;;9.20;3.43;;;34.40;72.00;;;;;;4988944;28;20470;-72
2022/06/18 13:15:47;;;;;;;4.03;2.93;;;34.20;71.10;;;;;;4984456;28;20492;-70
2022/06/18 13:18:20;;;;;;;6.20;3.53;;;34.10;73.40;;;;;;4988965;28;20480;-71
2022/06/18 13:20:51;;;;;;;6.47;3.40;;;34.20;76.30;;;;;;4988515;28;20553;-72
2022/06/18 13:28:57;;;;;;;7.73;3.50;;;34.30;75.20;;;;;;4988073;28;20448;-72
2022/06/18 13:31:38;;;;;;;11.20;3.80;;;34.50;79.40;;;;;;4989142;28;20458;-72
2022/06/18 13:34:14;;;;;;;6.33;3.77;;;34.70;75.00;;;;;;4989109;28;20467;-68
2022/06/18 13:36:50;;;;;;;9.00;3.80;;;34.80;77.40;;;;;;4988676;28;21009;-70
2022/06/18 13:39:26;;;;;;;6.73;3.97;;;35.00;79.20;;;;;;4987930;28;20558;-70
2022/06/18 13:42:00;;;;;;;8.77;4.40;;;35.10;77.90;;;;;;4988430;28;20576;-70
2022/06/18 13:44:41;;;;;;;4.20;3.40;;;35.20;80.80;;;;;;4988189;28;20473;-70
2022/06/18 13:47:14;;;;;;;7.03;3.33;;;35.10;79.90;;;;;;4987814;28;21048;-70
2022/06/18 13:49:48;;;;;;;6.80;3.60;;;35.20;77.40;;;;;;4987556;28;20469;-69
2022/06/18 13:52:15;;;;;;;7.67;4.00;;;35.30;73.00;;;;;;4986808;28;20570;-70
2022/06/18 13:54:44;;;;;;;7.20;3.60;;;35.20;71.90;;;;;;4988358;28;20513;-70
2022/06/18 13:57:15;;;;;;;9.33;3.73;;;35.10;72.90;;;;;;4987547;28;20516;-72
2022/06/18 13:59:51;;;;;;;5.63;3.47;;;34.80;74.10;;;;;;4986085;28;20558;-71
2022/06/18 14:02:28;;;;;;;8.97;3.50;;;34.70;74.90;;;;;;4985598;28;20490;-70
2022/06/18 14:05:02;;;;;;;8.97;3.37;;;34.70;73.60;;;;;;4984731;28;20469;-70
2022/06/18 14:07:31;;;;;;;9.03;3.90;;;34.70;76.30;;;;;;4986106;28;20514;-70
2022/06/18 14:09:59;;;;;;;10.40;4.10;;;34.60;76.10;;;;;;4985134;28;20462;-69
2022/06/18 14:12:31;;;;;;;10.87;5.03;;;34.70;76.20;;;;;;4985449;28;20554;-71